DAL446 KSAN-KLAX
Flight info
| Callsign | DAL446 |
|---|---|
| Flight time | N/A |
| Altitude | 10000 |
| Route | CWARD2 SLI |
| Aircraft | A20N/M-SDE2E3FGHIRWXY/LB1 |
Departure
| Time | 2026-05-06 03:08 |
|---|---|
| Airport | San Diego International Airport (KSAN) |
Arrival
| Time | N/A |
|---|---|
| Airport | Los Angeles International Airport (KLAX) |
| Time | Latitude | Longitude | Altitude | Speed | Heading |
|---|---|---|---|---|---|
| 2026-05-06 02:51 | 32.73289 | -117.19562 | 24 ft | 0 kts | 282° |
| 2026-05-06 02:56 | 32.73285 | -117.19539 | 28 ft | 5 kts | 283° |
| 2026-05-06 02:56 | 32.73271 | -117.19500 | 28 ft | 5 kts | 345° |
| 2026-05-06 02:57 | 32.73261 | -117.19499 | 26 ft | 0 kts | 24° |
| 2026-05-06 03:03 | 32.73265 | -117.19495 | 27 ft | 2 kts | 31° |
| 2026-05-06 03:03 | 32.73286 | -117.19475 | 30 ft | 6 kts | 44° |
| 2026-05-06 03:03 | 32.73326 | -117.19423 | 29 ft | 11 kts | 50° |
| 2026-05-06 03:03 | 32.73337 | -117.19315 | 23 ft | 17 kts | 104° |
| 2026-05-06 03:04 | 32.73300 | -117.19162 | 27 ft | 22 kts | 105° |
| 2026-05-06 03:04 | 32.73255 | -117.18976 | 27 ft | 25 kts | 107° |
| 2026-05-06 03:04 | 32.73203 | -117.18761 | 27 ft | 28 kts | 106° |
| 2026-05-06 03:04 | 32.73145 | -117.18520 | 26 ft | 33 kts | 107° |
| 2026-05-06 03:05 | 32.73079 | -117.18249 | 26 ft | 36 kts | 106° |
| 2026-05-06 03:05 | 32.73009 | -117.17964 | 21 ft | 27 kts | 106° |
| 2026-05-06 03:05 | 32.72964 | -117.17782 | 18 ft | 11 kts | 106° |
| 2026-05-06 03:05 | 32.72951 | -117.17720 | 20 ft | 2 kts | 102° |
| 2026-05-06 03:06 | 32.72951 | -117.17686 | 19 ft | 6 kts | 83° |
| 2026-05-06 03:06 | 32.72952 | -117.17678 | 19 ft | 0 kts | 78° |
| 2026-05-06 03:06 | 32.72954 | -117.17672 | 20 ft | 5 kts | 77° |
| 2026-05-06 03:06 | 32.72985 | -117.17595 | 22 ft | 13 kts | 32° |
| 2026-05-06 03:07 | 32.73038 | -117.17657 | 21 ft | 15 kts | 286° |
| 2026-05-06 03:07 | 32.73126 | -117.18025 | 19 ft | 80 kts | 286° |
| 2026-05-06 03:07 | 32.73333 | -117.18884 | 27 ft | 134 kts | 286° |
| 2026-05-06 03:07 | 32.73618 | -117.20017 | 407 ft | 143 kts | 292° |
| 2026-05-06 03:08 | 32.74161 | -117.20992 | 1049 ft | 141 kts | 309° |
| 2026-05-06 03:08 | 32.74792 | -117.21867 | 1696 ft | 139 kts | 307° |
| 2026-05-06 03:08 | 32.75350 | -117.22877 | 2110 ft | 155 kts | 299° |
| 2026-05-06 03:08 | 32.75898 | -117.24069 | 2534 ft | 174 kts | 298° |
| 2026-05-06 03:09 | 32.76522 | -117.25392 | 3005 ft | 194 kts | 300° |
| 2026-05-06 03:09 | 32.77243 | -117.26823 | 3466 ft | 216 kts | 301° |
| 2026-05-06 03:09 | 32.78093 | -117.28438 | 3994 ft | 238 kts | 302° |
| 2026-05-06 03:09 | 32.79007 | -117.30139 | 4643 ft | 254 kts | 302° |
| 2026-05-06 03:10 | 32.79986 | -117.31910 | 5588 ft | 257 kts | 307° |
| 2026-05-06 03:10 | 32.81093 | -117.33617 | 6499 ft | 263 kts | 308° |
| 2026-05-06 03:10 | 32.82223 | -117.35356 | 7356 ft | 268 kts | 308° |
| 2026-05-06 03:10 | 32.83370 | -117.37126 | 8252 ft | 271 kts | 308° |
| 2026-05-06 03:11 | 32.84527 | -117.38917 | 9142 ft | 275 kts | 308° |
| 2026-05-06 03:11 | 32.85709 | -117.40751 | 9726 ft | 282 kts | 308° |
| 2026-05-06 03:11 | 32.86905 | -117.42610 | 9938 ft | 283 kts | 308° |
| 2026-05-06 03:11 | 32.88101 | -117.44468 | 9994 ft | 283 kts | 308° |
| 2026-05-06 03:12 | 32.89302 | -117.46334 | 9995 ft | 283 kts | 309° |
| 2026-05-06 03:12 | 32.90484 | -117.48172 | 9992 ft | 284 kts | 309° |
| 2026-05-06 03:12 | 32.91687 | -117.50044 | 9994 ft | 283 kts | 309° |
| 2026-05-06 03:12 | 32.92883 | -117.51904 | 9993 ft | 284 kts | 309° |
| 2026-05-06 03:13 | 32.94086 | -117.53778 | 9992 ft | 284 kts | 309° |
| 2026-05-06 03:13 | 32.95309 | -117.55682 | 9998 ft | 301 kts | 309° |
| 2026-05-06 03:13 | 32.96645 | -117.57759 | 9994 ft | 327 kts | 309° |
| 2026-05-06 03:13 | 32.98028 | -117.59917 | 9989 ft | 321 kts | 309° |
| 2026-05-06 03:14 | 32.99351 | -117.61987 | 9986 ft | 305 kts | 309° |
| 2026-05-06 03:14 | 33.00597 | -117.63940 | 9984 ft | 288 kts | 309° |
| 2026-05-06 03:14 | 33.01781 | -117.65793 | 9986 ft | 278 kts | 309° |
| 2026-05-06 03:14 | 33.02993 | -117.67681 | 9992 ft | 300 kts | 309° |
| 2026-05-06 03:15 | 33.04330 | -117.69761 | 9989 ft | 327 kts | 309° |